TLPL/UVF METAR and TAF weather

Enter ICAO airport designator
Station Type Date Time Source
TLPL METAR 2020/09/28 09:00 UTC NOAA

TLPL 280900Z 13014KT 9999 VCTS FEW016CB 28/24 Q1009 NOSIG


Station Type Date Time Source
TLPL Decoded METAR 2020/09/28 09:00 UTC NOAA

Hewanorra International Airport, Saint Lucia (TLPL) 13-45N 060-57W 10M
Sep 28, 2020 - 05:00 AM EDT / 2020.09.28 0900 UTC
Wind: from the SE (130 degrees) at 16 MPH (14 KT):0
Visibility: greater than 7 mile(s):0
Sky conditions: mostly clear
Weather: thunder in the vicinity; Cumulonimbus clouds observed
Temperature: 82 F (28 C)
Dew Point: 75 F (24 C)
Relative Humidity: 78%
Pressure (altimeter): 29.80 in. Hg (1009 hPa)
ob: TLPL 280900Z 13014KT 9999 VCTS FEW016CB 28/24 Q1009 NOSIG
cycle: 9

Station Type Date Time Source
TLPL TAF 2020/09/28 06:28 UTC NOAA

TAF TLPL 280500Z 2806/2906 12017KT 9999 FEW016CB SCT020
TEMPO 2806/2818 5000 SHRA FEW015CB BKN018
TEMPO 2818/2903 5000 SHRA FEW015CB BKN018 PROB30
TEMPO 2815/2822 5000 TSRA SCT014CB BKN016

Example: see airport list